createdAt,value
2022-12-17T00:01:20.156Z,67.40
2022-12-17T00:04:06.071Z,65.50
2022-12-17T00:09:37.701Z,66.13
2022-12-17T00:12:26.375Z,70.30
2022-12-17T00:15:12.099Z,59.95
2022-12-17T00:18:00.602Z,59.22
2022-12-17T00:20:46.109Z,67.60
2022-12-17T00:23:32.515Z,66.50
2022-12-17T00:26:17.839Z,60.92
2022-12-17T00:29:06.910Z,59.20
2022-12-17T00:31:52.730Z,60.80
2022-12-17T00:34:41.342Z,59.22
2022-12-17T00:37:29.290Z,56.85
2022-12-17T00:40:17.320Z,57.03
2022-12-17T00:43:03.013Z,62.38
2022-12-17T00:45:48.778Z,64.85
2022-12-17T00:48:34.615Z,56.80
2022-12-17T00:51:21.245Z,57.53
2022-12-17T00:54:06.761Z,66.85
2022-12-17T00:56:52.830Z,59.67
2022-12-17T00:59:41.985Z,63.38
2022-12-17T01:02:30.449Z,54.83
2022-12-17T01:05:17.825Z,59.78
2022-12-17T01:08:03.720Z,58.63
2022-12-17T01:10:49.298Z,63.65
2022-12-17T01:13:37.017Z,62.45
2022-12-17T01:16:30.050Z,54.78
2022-12-17T01:19:17.162Z,58.42
2022-12-17T01:22:05.908Z,56.97
2022-12-17T01:24:51.954Z,57.78
2022-12-17T01:27:37.605Z,55.05
2022-12-17T01:30:24.435Z,59.70
2022-12-17T01:33:09.949Z,64.75
2022-12-17T01:35:56.434Z,65.57
2022-12-17T01:41:30.052Z,53.85
2022-12-17T01:44:15.801Z,54.42
2022-12-17T01:47:09.631Z,58.65
2022-12-17T01:49:55.033Z,69.47
2022-12-17T01:52:41.167Z,58.95
2022-12-17T01:55:26.801Z,43.80
2022-12-17T01:58:12.943Z,61.85
2022-12-17T02:00:59.474Z,51.25
2022-12-17T02:03:48.060Z,62.65
2022-12-17T02:06:42.129Z,60.83
2022-12-17T02:09:38.625Z,58.75
2022-12-17T02:12:43.566Z,59.35
2022-12-17T02:15:46.575Z,63.05
2022-12-17T02:18:39.704Z,59.05
2022-12-17T02:21:34.166Z,56.83
2022-12-17T02:24:32.530Z,58.00
2022-12-17T02:27:23.270Z,56.42
2022-12-17T02:30:12.895Z,60.88
2022-12-17T02:33:03.088Z,60.38
2022-12-17T02:36:01.176Z,55.25
2022-12-17T02:38:49.305Z,57.33
2022-12-17T02:41:45.241Z,65.72
2022-12-17T02:44:34.651Z,60.93
2022-12-17T02:47:24.937Z,52.55
2022-12-17T02:50:10.914Z,56.33
2022-12-17T02:53:01.390Z,56.45
2022-12-17T02:55:48.144Z,55.53
2022-12-17T02:58:34.338Z,56.92
2022-12-17T03:01:20.464Z,55.60
2022-12-17T03:04:06.162Z,54.72
2022-12-17T03:06:51.963Z,62.10
2022-12-17T03:09:39.095Z,54.85
2022-12-17T03:12:25.575Z,57.03
2022-12-17T03:15:11.127Z,56.08
2022-12-17T03:17:57.047Z,55.30
2022-12-17T03:20:43.077Z,57.85
2022-12-17T03:26:20.307Z,55.75
2022-12-17T03:29:07.018Z,58.97
2022-12-17T03:31:55.253Z,57.72
2022-12-17T03:34:41.198Z,63.33
2022-12-17T03:37:26.808Z,54.97
2022-12-17T03:40:12.822Z,60.65
2022-12-17T03:42:58.456Z,46.33
2022-12-17T03:45:44.376Z,58.20
2022-12-17T03:48:33.013Z,45.00
2022-12-17T03:51:20.236Z,60.15
2022-12-17T03:54:06.208Z,57.92
2022-12-17T03:56:57.639Z,57.42
2022-12-17T03:59:43.247Z,51.30
2022-12-17T04:02:31.835Z,54.45
2022-12-17T04:05:20.401Z,55.45
2022-12-17T04:08:09.448Z,57.50
2022-12-17T04:10:55.006Z,51.38
2022-12-17T04:13:42.982Z,56.05
2022-12-17T04:16:31.685Z,55.40
2022-12-17T04:19:17.612Z,50.83
2022-12-17T04:22:03.234Z,40.88
2022-12-17T04:24:49.024Z,49.88
2022-12-17T04:27:34.798Z,51.58
2022-12-17T04:30:21.018Z,52.05
2022-12-17T04:33:06.592Z,49.17
2022-12-17T04:35:52.550Z,46.83
2022-12-17T04:38:38.033Z,48.88
2022-12-17T04:41:23.806Z,38.28
2022-12-17T04:44:09.115Z,51.78
2022-12-17T04:46:54.984Z,51.13
2022-12-17T04:49:40.563Z,53.08
2022-12-17T04:52:26.449Z,49.53
2022-12-17T04:55:14.544Z,41.90
2022-12-17T04:58:00.505Z,47.17
2022-12-17T05:00:46.557Z,49.38
2022-12-17T05:06:20.224Z,53.75
2022-12-17T05:09:06.009Z,50.10
2022-12-17T05:11:51.510Z,43.13
2022-12-17T05:14:39.844Z,57.17
2022-12-17T05:17:25.393Z,53.75
2022-12-17T05:20:11.567Z,52.78
2022-12-17T05:22:56.965Z,52.65
2022-12-17T05:25:42.569Z,54.75
2022-12-17T05:28:31.156Z,57.17
2022-12-17T05:31:16.809Z,56.65
2022-12-17T05:34:02.609Z,42.43
2022-12-17T05:36:48.565Z,56.42
2022-12-17T05:39:34.072Z,55.05
2022-12-17T05:42:20.059Z,40.70
2022-12-17T05:45:08.286Z,42.25
2022-12-17T05:47:53.914Z,57.50
2022-12-17T05:50:39.573Z,56.97
2022-12-17T05:53:25.767Z,57.42
2022-12-17T05:56:11.720Z,53.33
2022-12-17T05:58:58.558Z,52.60
2022-12-17T06:01:43.972Z,56.90
2022-12-17T06:04:29.997Z,53.40
2022-12-17T06:07:19.969Z,51.45
2022-12-17T06:10:05.746Z,56.45
2022-12-17T06:12:51.482Z,52.78
2022-12-17T06:15:37.363Z,53.22
2022-12-17T06:18:22.829Z,43.28
2022-12-17T06:21:11.074Z,58.40
2022-12-17T06:23:56.730Z,59.63
2022-12-17T06:26:42.644Z,51.03
2022-12-17T06:29:28.259Z,59.47
2022-12-17T06:32:14.194Z,58.60
2022-12-17T06:35:00.124Z,55.38
2022-12-17T06:37:45.997Z,59.50
2022-12-17T06:40:31.614Z,57.75
2022-12-17T06:43:17.799Z,60.13
2022-12-17T06:46:03.450Z,64.22
2022-12-17T06:48:49.079Z,60.35
2022-12-17T06:51:37.211Z,59.65
2022-12-17T06:54:23.123Z,64.85
2022-12-17T06:57:08.425Z,59.70
2022-12-17T07:00:10.725Z,62.90
2022-12-17T07:02:56.651Z,61.85
2022-12-17T07:08:28.475Z,62.55
2022-12-17T07:14:02.820Z,57.03
2022-12-17T07:16:48.848Z,67.20
2022-12-17T07:19:34.369Z,61.22
2022-12-17T07:22:23.325Z,58.90
2022-12-17T07:25:08.969Z,53.00
2022-12-17T07:27:54.729Z,53.80
2022-12-17T07:30:40.671Z,54.40
2022-12-17T07:39:04.607Z,67.65
2022-12-17T07:41:49.973Z,58.42
2022-12-17T07:44:35.574Z,50.65
2022-12-17T07:47:21.216Z,57.53
2022-12-17T07:50:07.236Z,55.28
2022-12-17T07:52:52.833Z,60.13
2022-12-17T07:55:39.031Z,56.05
2022-12-17T07:58:29.435Z,45.55
2022-12-17T08:01:19.084Z,61.33
2022-12-17T08:04:04.787Z,59.03
2022-12-17T08:06:51.621Z,61.17
2022-12-17T08:09:39.653Z,55.38
2022-12-17T08:12:28.382Z,55.70
2022-12-17T08:15:13.876Z,51.30
2022-12-17T08:17:59.772Z,45.65
2022-12-17T08:20:45.769Z,38.28
2022-12-17T08:23:31.619Z,52.00
2022-12-17T08:26:18.425Z,55.22
2022-12-17T08:29:04.102Z,52.33
2022-12-17T08:31:49.920Z,52.13
2022-12-17T08:34:35.995Z,56.60
2022-12-17T08:37:21.680Z,54.15
2022-12-17T08:40:09.828Z,49.60
2022-12-17T08:43:02.968Z,55.78
2022-12-17T08:45:53.326Z,53.35
2022-12-17T08:48:38.837Z,51.15
2022-12-17T08:51:25.033Z,51.72
2022-12-17T08:54:10.712Z,54.22
2022-12-17T08:56:56.806Z,58.00
2022-12-17T08:59:42.840Z,53.15
2022-12-17T09:02:28.886Z,55.55
2022-12-17T09:05:14.575Z,52.78
2022-12-17T09:08:06.862Z,47.83
2022-12-17T09:10:52.462Z,50.17
2022-12-17T09:13:40.646Z,55.53
2022-12-17T09:16:29.116Z,53.25
2022-12-17T09:19:17.463Z,48.53
2022-12-17T09:22:03.237Z,52.38
2022-12-17T09:24:49.061Z,49.17
2022-12-17T09:27:34.970Z,50.20
2022-12-17T09:33:06.639Z,55.15
2022-12-17T09:35:52.506Z,49.30
2022-12-17T09:38:38.146Z,50.97
2022-12-17T09:41:53.440Z,51.67
2022-12-17T09:44:46.076Z,50.13
2022-12-17T09:47:52.330Z,50.00
2022-12-17T09:50:38.308Z,52.17
2022-12-17T09:53:37.647Z,46.28
2022-12-17T09:56:30.479Z,51.10
2022-12-17T09:59:17.234Z,46.85
2022-12-17T10:02:02.989Z,46.25
2022-12-17T10:05:06.340Z,47.28
2022-12-17T10:07:57.315Z,50.33
2022-12-17T10:10:46.494Z,50.38
2022-12-17T10:13:40.560Z,46.70
2022-12-17T10:16:37.124Z,46.25
2022-12-17T10:19:23.878Z,45.75
2022-12-17T10:22:09.684Z,46.30
2022-12-17T10:25:04.381Z,42.80
2022-12-17T10:27:50.530Z,45.63
2022-12-17T10:30:36.717Z,43.17
2022-12-17T10:33:26.626Z,37.92
2022-12-17T10:36:12.148Z,40.38
2022-12-17T10:38:59.010Z,42.28
2022-12-17T10:41:48.772Z,42.67
2022-12-17T10:44:45.574Z,41.95
2022-12-17T10:47:42.745Z,40.53
2022-12-17T10:50:36.467Z,41.83
2022-12-17T10:53:38.195Z,44.28
2022-12-17T10:56:24.696Z,40.00
2022-12-17T10:59:12.806Z,42.45
2022-12-17T11:02:14.041Z,44.05
2022-12-17T11:05:10.638Z,44.42
2022-12-17T11:08:01.185Z,41.33
2022-12-17T11:10:50.140Z,39.92
2022-12-17T11:13:46.667Z,43.80
2022-12-17T11:16:42.661Z,38.67
2022-12-17T11:19:31.537Z,43.03
2022-12-17T11:22:24.590Z,35.78
2022-12-17T11:25:21.721Z,41.00
2022-12-17T11:28:17.386Z,42.85
2022-12-17T11:31:16.715Z,42.27
2022-12-17T11:34:23.880Z,39.10
2022-12-17T11:37:35.559Z,41.35
2022-12-17T11:40:44.158Z,39.50
2022-12-17T11:43:46.276Z,42.40
2022-12-17T11:47:07.751Z,41.03
2022-12-17T11:50:13.083Z,42.10
2022-12-17T11:53:27.502Z,39.80
2022-12-17T11:56:45.371Z,43.33
2022-12-17T11:59:52.665Z,41.65
2022-12-17T12:03:10.417Z,35.70
2022-12-17T12:06:11.689Z,37.35
2022-12-17T12:09:28.109Z,41.03
2022-12-17T12:12:47.259Z,39.03
2022-12-17T12:15:55.316Z,39.17
2022-12-17T12:18:55.656Z,34.28
2022-12-17T12:21:48.197Z,36.92
2022-12-17T12:25:05.044Z,37.95
2022-12-17T12:28:03.966Z,37.80
2022-12-17T12:31:05.798Z,36.45
2022-12-17T12:34:14.118Z,37.30
2022-12-17T12:37:02.169Z,36.00
2022-12-17T12:40:07.976Z,43.35
2022-12-17T12:43:02.752Z,37.67
2022-12-17T12:46:04.096Z,34.63
2022-12-17T12:49:11.647Z,35.75
2022-12-17T12:51:58.290Z,37.88
2022-12-17T12:55:08.409Z,37.70
2022-12-17T12:57:54.152Z,37.35
2022-12-17T13:00:40.340Z,26.90
2022-12-17T13:03:39.328Z,36.35
2022-12-17T13:06:06.997Z,35.60
2022-12-17T13:08:35.096Z,34.13
2022-12-17T13:11:28.525Z,37.63
2022-12-17T13:14:01.605Z,39.22
2022-12-17T13:16:48.893Z,39.47
2022-12-17T13:19:37.548Z,37.22
2022-12-17T13:22:23.827Z,40.85
2022-12-17T13:24:54.948Z,37.45
2022-12-17T13:27:36.832Z,38.80
2022-12-17T13:30:21.668Z,38.20
2022-12-17T13:33:03.754Z,36.60
2022-12-17T13:35:40.177Z,36.78
2022-12-17T13:38:27.167Z,33.40
2022-12-17T13:41:10.741Z,35.90
2022-12-17T13:43:48.154Z,39.33
2022-12-17T13:46:27.766Z,38.38
2022-12-17T13:49:04.094Z,35.38
2022-12-17T13:51:35.916Z,38.08
2022-12-17T13:54:04.669Z,36.80
2022-12-17T13:56:35.474Z,36.67
2022-12-17T13:59:09.056Z,41.78
2022-12-17T14:01:50.055Z,38.40
2022-12-17T14:04:25.081Z,41.83
2022-12-17T14:06:56.136Z,28.83
2022-12-17T14:09:34.002Z,37.15
2022-12-17T14:12:23.663Z,43.92
2022-12-17T14:15:08.428Z,40.08
2022-12-17T14:17:40.824Z,38.67
2022-12-17T14:20:16.879Z,41.40
2022-12-17T14:22:55.626Z,38.72
2022-12-17T14:25:26.313Z,40.33
2022-12-17T14:27:55.972Z,40.50
2022-12-17T14:30:35.770Z,35.90
2022-12-17T14:33:05.790Z,37.28
2022-12-17T14:35:39.855Z,37.17
2022-12-17T14:38:48.476Z,33.27
2022-12-17T14:41:31.983Z,36.97
2022-12-17T14:44:00.937Z,40.13
2022-12-17T14:46:30.343Z,39.38
2022-12-17T14:49:04.930Z,39.90
2022-12-17T14:51:36.673Z,38.05
2022-12-17T14:54:34.423Z,40.20
2022-12-17T14:57:05.877Z,36.20
2022-12-17T14:59:41.118Z,42.55
2022-12-17T15:02:08.259Z,33.50
2022-12-17T15:04:39.216Z,34.47
2022-12-17T15:07:09.890Z,33.53
2022-12-17T15:09:42.090Z,32.22
2022-12-17T15:12:09.711Z,34.17
2022-12-17T15:14:37.393Z,31.88
2022-12-17T15:17:05.496Z,34.03
2022-12-17T15:19:33.114Z,32.33
2022-12-17T15:22:02.518Z,31.92
2022-12-17T15:24:30.340Z,34.63
2022-12-17T15:27:00.230Z,30.27
2022-12-17T15:29:27.610Z,27.20
2022-12-17T15:31:54.945Z,25.60
2022-12-17T15:34:22.391Z,27.63
2022-12-17T15:36:49.666Z,25.20
2022-12-17T15:39:16.911Z,24.15
2022-12-17T15:42:02.500Z,25.00
2022-12-17T15:44:29.936Z,31.50
2022-12-17T15:46:58.274Z,32.75
2022-12-17T15:49:25.800Z,28.90
2022-12-17T15:51:52.812Z,28.38
2022-12-17T15:54:20.360Z,28.15
2022-12-17T15:56:53.908Z,24.35
2022-12-17T15:59:24.602Z,28.55
2022-12-17T16:01:53.997Z,30.13
2022-12-17T16:04:24.892Z,29.80
2022-12-17T16:06:53.189Z,32.10
2022-12-17T16:09:24.638Z,27.02
2022-12-17T16:11:55.419Z,29.80
2022-12-17T16:14:24.677Z,27.00
2022-12-17T16:16:52.259Z,30.45
2022-12-17T16:19:22.473Z,29.75
2022-12-17T16:21:49.514Z,26.63
2022-12-17T16:24:16.940Z,30.73
2022-12-17T16:26:44.929Z,27.55
2022-12-17T16:29:15.952Z,31.73
2022-12-17T16:31:43.421Z,30.95
2022-12-17T16:34:12.744Z,30.88
2022-12-17T16:36:41.690Z,28.67
2022-12-17T16:39:15.579Z,29.65
2022-12-17T16:41:43.355Z,32.08
2022-12-17T16:44:10.929Z,25.35
2022-12-17T16:46:42.784Z,46.33
2022-12-17T16:49:22.845Z,47.17
2022-12-17T16:51:52.996Z,39.90
2022-12-17T16:54:24.609Z,32.25
2022-12-17T16:56:53.786Z,26.50
2022-12-17T16:59:23.760Z,30.67
2022-12-17T17:01:52.123Z,27.27
2022-12-17T17:04:22.054Z,30.23
2022-12-17T17:06:52.048Z,32.53
2022-12-17T17:09:20.021Z,27.35
2022-12-17T17:11:51.366Z,27.05
2022-12-17T17:14:22.461Z,25.63
2022-12-17T17:16:49.734Z,28.58
2022-12-17T17:19:21.853Z,28.33
2022-12-17T17:21:53.116Z,28.70
2022-12-17T17:24:24.177Z,28.27
2022-12-17T17:26:52.681Z,29.20
2022-12-17T17:29:22.552Z,27.52
2022-12-17T17:34:37.854Z,30.80
2022-12-17T17:37:05.725Z,27.58
2022-12-17T17:39:34.378Z,27.75
2022-12-17T17:42:04.074Z,32.13
2022-12-17T17:44:37.292Z,31.73
2022-12-17T17:47:04.839Z,31.23
2022-12-17T17:49:32.438Z,29.48
2022-12-17T17:52:10.847Z,30.27
2022-12-17T17:54:42.463Z,29.83
2022-12-17T17:57:10.246Z,26.05
2022-12-17T17:59:40.705Z,28.15
2022-12-17T18:02:11.403Z,33.42
2022-12-17T18:04:39.936Z,28.27
2022-12-17T18:09:55.802Z,28.00
2022-12-17T18:12:41.632Z,32.88
2022-12-17T18:15:14.840Z,27.30
2022-12-17T18:17:45.084Z,26.27
2022-12-17T18:20:13.506Z,26.00
2022-12-17T18:22:40.955Z,28.33
2022-12-17T18:25:08.709Z,26.98
2022-12-17T18:27:36.425Z,29.17
2022-12-17T18:30:04.656Z,25.60
2022-12-17T18:32:32.050Z,23.60
2022-12-17T18:34:59.872Z,28.27
2022-12-17T18:37:27.348Z,23.35
2022-12-17T18:39:54.787Z,27.52
2022-12-17T18:42:40.675Z,25.73
2022-12-17T18:45:08.983Z,22.58
2022-12-17T18:47:39.061Z,24.98
2022-12-17T18:50:07.236Z,23.60
2022-12-17T18:52:34.534Z,22.83
2022-12-17T18:55:02.328Z,24.25
2022-12-17T18:57:30.242Z,25.95
2022-12-17T18:59:59.183Z,21.35
2022-12-17T19:02:27.089Z,20.75
2022-12-17T19:04:55.032Z,26.05
2022-12-17T19:07:22.850Z,22.70
2022-12-17T19:09:50.524Z,17.52
2022-12-17T19:12:18.078Z,20.17
2022-12-17T19:14:46.456Z,18.27
2022-12-17T19:17:14.182Z,19.85
2022-12-17T19:19:42.014Z,19.38
2022-12-17T19:22:09.332Z,21.70
2022-12-17T19:24:36.735Z,20.13
2022-12-17T19:27:04.088Z,19.23
2022-12-17T19:29:34.234Z,19.90
2022-12-17T19:32:01.313Z,25.13
2022-12-17T19:34:29.393Z,33.67
2022-12-17T19:36:57.121Z,25.75
2022-12-17T19:39:27.866Z,20.00
2022-12-17T19:41:55.214Z,23.10
2022-12-17T19:44:23.360Z,22.20
2022-12-17T19:46:50.492Z,24.88
2022-12-17T19:49:18.258Z,21.98
2022-12-17T19:51:46.701Z,21.13
2022-12-17T19:54:18.067Z,21.30
2022-12-17T19:56:46.298Z,24.15
2022-12-17T19:59:17.727Z,24.98
2022-12-17T20:01:46.540Z,21.60
2022-12-17T20:04:16.095Z,19.25
2022-12-17T20:06:44.480Z,21.02
2022-12-17T20:09:15.838Z,26.00
2022-12-17T20:11:46.772Z,23.10
2022-12-17T20:14:23.745Z,23.70
2022-12-17T20:17:01.641Z,21.00
2022-12-17T20:19:33.784Z,20.90
2022-12-17T20:22:04.545Z,20.27
2022-12-17T20:24:32.581Z,20.50
2022-12-17T20:27:03.413Z,20.17
2022-12-17T20:29:32.739Z,18.70
2022-12-17T20:32:00.476Z,15.82
2022-12-17T20:34:29.772Z,20.90
2022-12-17T20:36:57.420Z,20.20
2022-12-17T20:39:27.631Z,19.00
2022-12-17T20:41:55.826Z,17.55
2022-12-17T20:44:23.759Z,19.17
2022-12-17T20:46:51.267Z,24.55
2022-12-17T20:49:18.979Z,18.48
2022-12-17T20:51:46.085Z,18.83
2022-12-17T20:54:13.649Z,19.52
2022-12-17T20:56:41.053Z,17.73
2022-12-17T20:59:13.184Z,19.17
2022-12-17T21:01:40.558Z,19.23
2022-12-17T21:04:08.725Z,18.10
2022-12-17T21:06:38.502Z,18.17
2022-12-17T21:09:07.335Z,20.35
2022-12-17T21:11:38.769Z,19.83
2022-12-17T21:14:08.485Z,18.52
2022-12-17T21:16:39.354Z,20.95
2022-12-17T21:19:15.665Z,18.55
2022-12-17T21:21:43.271Z,19.80
2022-12-17T21:24:11.351Z,17.45
2022-12-17T21:26:41.718Z,15.55
2022-12-17T21:29:09.706Z,14.40
2022-12-17T21:31:42.588Z,20.08
2022-12-17T21:34:21.949Z,15.18
2022-12-17T21:36:50.378Z,21.08
2022-12-17T21:39:19.015Z,19.65
2022-12-17T21:42:07.608Z,17.90
2022-12-17T21:44:35.978Z,15.18
2022-12-17T21:47:03.491Z,18.90
2022-12-17T21:49:30.887Z,17.38
2022-12-17T21:51:59.506Z,20.58
2022-12-17T21:54:27.194Z,20.75
2022-12-17T21:56:54.256Z,16.20
2022-12-17T21:59:21.742Z,15.00
2022-12-17T22:01:52.829Z,19.92
2022-12-17T22:04:20.362Z,20.73
2022-12-17T22:06:55.800Z,18.25
2022-12-17T22:09:46.358Z,17.48
2022-12-17T22:12:36.623Z,16.45
2022-12-17T22:15:06.736Z,18.83
2022-12-17T22:17:34.412Z,14.75
2022-12-17T22:20:02.107Z,13.07
2022-12-17T22:22:29.666Z,13.18
2022-12-17T22:24:57.167Z,14.82
2022-12-17T22:27:24.505Z,14.05
2022-12-17T22:30:10.323Z,17.50
2022-12-17T22:32:56.051Z,15.02
2022-12-17T22:36:18.517Z,14.13
2022-12-17T22:42:58.189Z,15.73
2022-12-17T22:44:37.946Z,14.60
2022-12-17T22:44:46.139Z,13.30
2022-12-17T22:46:50.885Z,10.32
2022-12-17T22:49:19.870Z,12.70
2022-12-17T22:51:47.378Z,15.68
2022-12-17T22:54:14.926Z,16.15
2022-12-17T22:57:00.705Z,16.30
2022-12-17T22:59:32.636Z,15.18
2022-12-17T23:02:00.234Z,10.63
2022-12-17T23:04:27.368Z,12.93
2022-12-17T23:06:55.823Z,14.32
2022-12-17T23:09:24.119Z,12.38
2022-12-17T23:11:51.435Z,11.50
2022-12-17T23:14:18.633Z,13.93
2022-12-17T23:16:45.997Z,15.45
2022-12-17T23:19:13.713Z,13.70
2022-12-17T23:21:41.209Z,11.82
2022-12-17T23:24:08.688Z,12.50
2022-12-17T23:26:37.429Z,13.57
2022-12-17T23:29:08.068Z,12.63
2022-12-17T23:31:38.473Z,9.68
2022-12-17T23:34:06.537Z,11.40
2022-12-17T23:36:34.300Z,9.70
2022-12-17T23:39:01.663Z,12.75
2022-12-17T23:41:31.061Z,8.55
2022-12-17T23:43:59.803Z,12.50
2022-12-17T23:46:28.960Z,14.35
2022-12-17T23:48:56.353Z,12.32
2022-12-17T23:51:24.933Z,10.43
2022-12-17T23:53:52.008Z,10.75
2022-12-17T23:56:24.909Z,13.05
2022-12-17T23:58:54.572Z,12.77
